Aviation Digital Data Service (ADDS)

Output produced by METARs form (2147 UTC 25 April 2015)
found at http://aviationweather.gov/adds/metars/
 
KRUT 251730Z 2518/2618 32009KT P6SM SCT045 BKN060 
     FM252300 VRB05KT P6SM SCT040 BKN110 
     FM261500 33005KT P6SM BKN050 AMD LTD TO CLD VIS AND WIND